Maria S. Merian — DBBT — position and weather

sailwx.info

Track history (hours):
 
Tides and Currents Weather Stations Pressure Air Temp Water Temp Dewpoint Dewpoint Depression Visibility Wind Speed Wind Dir Waves Ship Positions

Oceanographic research ship Maria S. Merian (Germany)

Last reported at 2020-Sep-23 18:37 UTC. Time now 2020-Sep-26 08:46 UTC.
Position N 76°25' E 014°49'.

Length 94.8 m; beam 19.2 m; draft 6.5 m.

Type: Other ship. MMSI: 211753000.

Date/timePositionNaut miles runAvg speedWind from/ knotsBaromVisibWave heightAir tempDewpointWater temp
2020-Sep-23 18:37N 76°25' E 014°49'139 2.8
2020-Sep-21 17:27N 78°27' E 009°45'3 0.5
2020-Sep-21 10:29N 78°27' E 009°29'0 0.1
2020-Sep-21 08:18N 78°27' E 009°29'10 3.0
2020-Sep-21 05:06N 78°26' E 010°16'0 0.1
2020-Sep-21 01:17N 78°26' E 010°15'12 6.7
2020-Sep-20 23:26N 78°24' E 009°15'3 0.6
2020-Sep-20 17:58N 78°27' E 009°13'1 1.6
2020-Sep-20 17:25N 78°27' E 009°08'1 0.2
2020-Sep-20 12:26N 78°27' E 009°13'4 4.8
2020-Sep-20 11:41N 78°26' E 009°31'2 0.6
2020-Sep-20 08:25N 78°27' E 009°41'130 6.1
2020-Sep-19 11:00N 76°30' E 014°12'3 0.8
2020-Sep-19 07:24N 76°29' E 014°23'4 9.4
2020-Sep-19 06:58N 76°27' E 014°38'1 0.2
2020-Sep-18 23:30N 76°26' E 014°33'6 5.0
2020-Sep-18 22:17N 76°30' E 014°12'6 1.7
2020-Sep-18 18:55N 76°26' E 014°29'3 0.3
2020-Sep-18 07:09N 76°29' E 014°32'138 8.3
2020-Sep-17 14:30N 78°28' E 009°11'13 5.1
2020-Sep-17 11:57N 78°27' E 010°15'13 2.3
2020-Sep-17 06:21N 78°25' E 009°13'  
Track history (hours):
 
Tides and Currents Weather Stations Pressure Air Temp Water Temp Dewpoint Dewpoint Depression Visibility Wind Speed Wind Dir Waves Ship Positions

Oceanographic research ship Maria S. Merian (Germany)

Last reported at 2020-Sep-23 18:37 UTC. Time now 2020-Sep-26 08:46 UTC.
Position N 76°25' E 014°49'.

Length 94.8 m; beam 19.2 m; draft 6.5 m.

Type: Other ship. MMSI: 211753000.

Date/timePositionNaut miles runAvg speedWind from/ knotsBaromVisibWave heightAir tempDewpointWater temp
2020-Sep-23 18:37N 76°25' E 014°49'139 2.8
2020-Sep-21 17:27N 78°27' E 009°45'3 0.5
2020-Sep-21 10:29N 78°27' E 009°29'0 0.1
2020-Sep-21 08:18N 78°27' E 009°29'10 3.0
2020-Sep-21 05:06N 78°26' E 010°16'0 0.1
2020-Sep-21 01:17N 78°26' E 010°15'12 6.7
2020-Sep-20 23:26N 78°24' E 009°15'3 0.6
2020-Sep-20 17:58N 78°27' E 009°13'1 1.6
2020-Sep-20 17:25N 78°27' E 009°08'1 0.2
2020-Sep-20 12:26N 78°27' E 009°13'4 4.8
2020-Sep-20 11:41N 78°26' E 009°31'2 0.6
2020-Sep-20 08:25N 78°27' E 009°41'130 6.1
2020-Sep-19 11:00N 76°30' E 014°12'3 0.8
2020-Sep-19 07:24N 76°29' E 014°23'4 9.4
2020-Sep-19 06:58N 76°27' E 014°38'1 0.2
2020-Sep-18 23:30N 76°26' E 014°33'6 5.0
2020-Sep-18 22:17N 76°30' E 014°12'6 1.7
2020-Sep-18 18:55N 76°26' E 014°29'3 0.3
2020-Sep-18 07:09N 76°29' E 014°32'138 8.3
2020-Sep-17 14:30N 78°28' E 009°11'13 5.1
2020-Sep-17 11:57N 78°27' E 010°15'13 2.3
2020-Sep-17 06:21N 78°25' E 009°13'  

Dump ship's entire track history